createdAt,value
2022-09-27T00:01:10.833Z,98780.63
2022-09-27T00:03:39.315Z,98781.47
2022-09-27T00:06:09.774Z,98783.47
2022-09-27T00:08:38.170Z,98782.47
2022-09-27T00:11:07.480Z,98787.97
2022-09-27T00:13:35.220Z,98784.47
2022-09-27T00:16:06.045Z,98784.69
2022-09-27T00:18:35.051Z,98785.50
2022-09-27T00:21:07.457Z,98795.31
2022-09-27T00:23:36.085Z,98793.69
2022-09-27T00:26:03.863Z,98792.03
2022-09-27T00:28:31.940Z,98798.34
2022-09-27T00:31:00.119Z,98792.03
2022-09-27T00:33:29.379Z,98797.53
2022-09-27T00:36:03.988Z,98794.03
2022-09-27T00:38:31.556Z,98800.19
2022-09-27T00:40:59.167Z,98796.91
2022-09-27T00:43:27.036Z,98799.91
2022-09-27T00:46:02.426Z,98798.28
2022-09-27T00:48:37.234Z,98799.28
2022-09-27T00:51:08.571Z,98801.97
2022-09-27T00:53:40.875Z,98801.97
2022-09-27T00:56:13.564Z,98800.31
2022-09-27T00:58:51.376Z,98807.47
2022-09-27T01:01:19.288Z,98806.66
2022-09-27T01:03:53.616Z,98804.00
2022-09-27T01:06:22.741Z,98809.75
2022-09-27T01:08:50.512Z,98813.16
2022-09-27T01:11:36.067Z,98816.22
2022-09-27T01:14:25.415Z,98813.75
2022-09-27T01:17:02.942Z,98818.25
2022-09-27T01:20:03.063Z,98816.56
2022-09-27T01:22:38.233Z,98826.78
2022-09-27T01:25:22.770Z,98822.28
2022-09-27T01:28:10.749Z,98827.13
2022-09-27T01:30:46.838Z,98823.84
2022-09-27T01:33:37.744Z,98828.34
2022-09-27T01:36:18.177Z,98832.38
2022-09-27T01:38:56.221Z,98826.22
2022-09-27T01:41:33.418Z,98835.44
2022-09-27T01:44:24.976Z,98833.75
2022-09-27T01:47:02.794Z,98835.44
2022-09-27T01:49:50.912Z,98836.78
2022-09-27T01:52:23.600Z,98837.16
2022-09-27T01:54:55.615Z,98839.19
2022-09-27T01:57:37.191Z,98838.56
2022-09-27T02:00:09.587Z,98836.91
2022-09-27T02:02:49.150Z,98841.38
2022-09-27T02:05:33.454Z,98836.25
2022-09-27T02:08:15.792Z,98845.25
2022-09-27T02:10:46.884Z,98847.69
2022-09-27T02:13:22.184Z,98845.59
2022-09-27T02:15:59.112Z,98836.97
2022-09-27T02:18:51.095Z,98844.13
2022-09-27T02:21:20.201Z,98846.78
2022-09-27T02:23:52.817Z,98846.31
2022-09-27T02:26:25.360Z,98842.22
2022-09-27T02:28:58.939Z,98850.38
2022-09-27T02:31:32.838Z,98845.88
2022-09-27T02:34:06.011Z,98852.38
2022-09-27T02:36:34.291Z,98848.91
2022-09-27T02:39:02.127Z,98847.25
2022-09-27T02:41:32.175Z,98846.44
2022-09-27T02:44:04.148Z,98847.44
2022-09-27T02:46:59.471Z,98848.44
2022-09-27T02:49:45.614Z,98848.59
2022-09-27T02:52:44.547Z,98853.09
2022-09-27T02:55:19.146Z,98850.81
2022-09-27T02:58:10.481Z,98856.34
2022-09-27T03:01:03.101Z,98848.34
2022-09-27T03:04:09.046Z,98852.84
2022-09-27T03:06:39.462Z,98856.34
2022-09-27T03:09:15.558Z,98848.16
2022-09-27T03:11:43.327Z,98856.34
2022-09-27T03:14:10.871Z,98849.34
2022-09-27T03:16:45.901Z,98857.69
2022-09-27T03:19:36.296Z,98864.84
2022-09-27T03:22:23.633Z,98861.38
2022-09-27T03:24:51.179Z,98858.22
2022-09-27T03:27:18.738Z,98865.56
2022-09-27T03:29:46.447Z,98869.25
2022-09-27T03:32:14.062Z,98872.88
2022-09-27T03:35:00.818Z,98873.44
2022-09-27T03:37:29.814Z,98871.97
2022-09-27T03:39:57.466Z,98868.47
2022-09-27T03:42:25.222Z,98878.66
2022-09-27T03:44:53.969Z,98882.50
2022-09-27T03:47:22.217Z,98875.50
2022-09-27T03:49:49.848Z,98877.50
2022-09-27T03:52:18.440Z,98877.50
2022-09-27T03:54:47.897Z,98881.16
2022-09-27T03:57:15.628Z,98880.34
2022-09-27T03:59:43.632Z,98877.69
2022-09-27T04:02:34.024Z,98882.16
2022-09-27T04:05:36.659Z,98883.16
2022-09-27T04:08:08.356Z,98882.53
2022-09-27T04:10:37.415Z,98887.19
2022-09-27T04:13:05.362Z,98890.69
2022-09-27T04:15:40.243Z,98888.03
2022-09-27T04:18:39.980Z,98897.19
2022-09-27T04:21:30.759Z,98896.53
2022-09-27T04:23:58.601Z,98888.56
2022-09-27T04:26:28.321Z,98891.38
2022-09-27T04:29:03.836Z,98899.72
2022-09-27T04:31:33.496Z,98901.38
2022-09-27T04:34:46.021Z,98903.72
2022-09-27T04:37:14.282Z,98906.09
2022-09-27T04:39:46.008Z,98910.94
2022-09-27T04:42:15.731Z,98903.16
2022-09-27T04:44:43.445Z,98913.78
2022-09-27T04:47:11.459Z,98916.59
2022-09-27T04:49:39.566Z,98922.09
2022-09-27T04:52:07.154Z,98917.78
2022-09-27T04:54:36.406Z,98918.94
2022-09-27T04:57:14.487Z,98925.47
2022-09-27T04:59:45.338Z,98927.63
2022-09-27T05:02:14.205Z,98921.84
2022-09-27T05:05:11.212Z,98930.00
2022-09-27T05:07:42.272Z,98933.00
2022-09-27T05:10:15.299Z,98930.72
2022-09-27T05:12:43.392Z,98933.50
2022-09-27T05:15:17.693Z,98931.03
2022-09-27T05:18:17.995Z,98944.81
2022-09-27T05:21:18.039Z,98943.53
2022-09-27T05:23:48.181Z,98949.81
2022-09-27T05:26:16.288Z,98950.19
2022-09-27T05:28:44.315Z,98958.16
2022-09-27T05:31:14.284Z,98954.69
2022-09-27T05:33:43.725Z,98955.00
2022-09-27T05:36:35.060Z,98959.31
2022-09-27T05:39:02.698Z,98952.19
2022-09-27T05:41:32.657Z,98955.84
2022-09-27T05:44:01.152Z,98969.94
2022-09-27T05:46:30.356Z,98961.13
2022-09-27T05:48:58.095Z,98959.16
2022-09-27T05:51:25.757Z,98965.47
2022-09-27T05:53:53.560Z,98969.94
2022-09-27T05:56:27.675Z,98961.97
2022-09-27T05:59:18.014Z,98961.97
2022-09-27T06:02:11.673Z,98968.13
2022-09-27T06:05:02.930Z,98967.94
2022-09-27T06:07:50.452Z,98968.94
2022-09-27T06:10:24.487Z,98980.03
2022-09-27T06:12:52.332Z,98974.53
2022-09-27T06:15:34.883Z,98976.03
2022-09-27T06:18:09.861Z,98974.72
2022-09-27T06:20:38.682Z,98978.84
2022-09-27T06:23:08.466Z,98984.44
2022-09-27T06:25:37.925Z,98981.91
2022-09-27T06:28:15.639Z,98983.56
2022-09-27T06:30:47.094Z,98992.38
2022-09-27T06:33:36.906Z,98991.84
2022-09-27T06:36:06.843Z,98986.34
2022-09-27T06:38:36.539Z,98990.50
2022-09-27T06:41:17.679Z,98999.59
2022-09-27T06:44:03.039Z,99005.56
2022-09-27T06:47:08.888Z,99007.88
2022-09-27T06:50:07.992Z,99007.34
2022-09-27T06:52:37.041Z,99011.94
2022-09-27T06:55:05.999Z,99011.78
2022-09-27T06:57:52.414Z,99014.28
2022-09-27T07:00:27.375Z,99022.69
2022-09-27T07:04:13.588Z,99021.72
2022-09-27T07:07:02.904Z,99026.22
2022-09-27T07:09:38.799Z,99035.00
2022-09-27T07:12:06.583Z,99033.00
2022-09-27T07:14:35.147Z,99036.47
2022-09-27T07:17:03.956Z,99030.16
2022-09-27T07:19:38.471Z,99038.31
2022-09-27T07:22:09.581Z,99027.69
2022-09-27T07:24:37.572Z,99040.59
2022-09-27T07:27:06.549Z,99042.78
2022-09-27T07:29:34.659Z,99041.06
2022-09-27T07:32:02.735Z,99045.03
2022-09-27T07:34:30.546Z,99055.31
2022-09-27T07:37:00.419Z,99045.31
2022-09-27T07:39:30.184Z,99054.63
2022-09-27T07:41:57.807Z,99053.09
2022-09-27T07:44:25.537Z,99057.72
2022-09-27T07:47:19.391Z,99065.38
2022-09-27T07:50:09.567Z,99063.72
2022-09-27T07:52:51.145Z,99070.69
2022-09-27T07:55:52.601Z,99076.00
2022-09-27T07:58:23.345Z,99080.31
2022-09-27T08:00:54.687Z,99079.66
2022-09-27T08:03:22.820Z,99077.28
2022-09-27T08:05:50.424Z,99078.59
2022-09-27T08:08:18.411Z,99078.72
2022-09-27T08:10:49.579Z,99077.66
2022-09-27T08:13:19.970Z,99083.56
2022-09-27T08:15:49.211Z,99084.28
2022-09-27T08:18:17.550Z,99093.53
2022-09-27T08:20:57.484Z,99092.81
2022-09-27T08:23:44.180Z,99094.78
2022-09-27T08:26:25.924Z,99095.69
2022-09-27T08:29:12.694Z,99093.81
2022-09-27T08:31:44.465Z,99104.56
2022-09-27T08:34:12.392Z,99103.19
2022-09-27T08:36:40.041Z,99101.81
2022-09-27T08:39:07.628Z,99101.22
2022-09-27T08:41:51.472Z,99097.81
2022-09-27T08:44:27.872Z,99105.91
2022-09-27T08:47:18.749Z,99106.00
2022-09-27T08:49:53.400Z,99105.19
2022-09-27T08:52:24.296Z,99100.88
2022-09-27T08:54:52.935Z,99101.84
2022-09-27T08:57:24.610Z,99103.25
2022-09-27T08:59:55.880Z,99111.59
2022-09-27T09:02:26.337Z,99109.47
2022-09-27T09:04:58.828Z,99120.75
2022-09-27T09:07:47.644Z,99117.25
2022-09-27T09:10:52.196Z,99113.75
2022-09-27T09:13:37.750Z,99111.28
2022-09-27T09:16:18.613Z,99107.84
2022-09-27T09:19:04.902Z,99119.22
2022-09-27T09:22:07.592Z,99116.66
2022-09-27T09:24:48.073Z,99118.47
2022-09-27T09:27:24.446Z,99123.63
2022-09-27T09:30:19.754Z,99119.00
2022-09-27T09:33:06.343Z,99120.66
2022-09-27T09:35:40.498Z,99120.22
2022-09-27T09:38:14.463Z,99117.38
2022-09-27T09:40:47.790Z,99121.22
2022-09-27T09:43:20.216Z,99116.25
2022-09-27T09:45:56.189Z,99120.38
2022-09-27T09:48:33.616Z,99124.00
2022-09-27T09:51:09.357Z,99120.63
2022-09-27T09:53:42.960Z,99113.38
2022-09-27T09:56:19.212Z,99120.63
2022-09-27T09:58:52.594Z,99111.38
2022-09-27T10:01:29.553Z,99114.25
2022-09-27T10:03:57.668Z,99109.47
2022-09-27T10:06:27.411Z,99121.41
2022-09-27T10:08:56.599Z,99110.94
2022-09-27T10:11:43.004Z,99115.25
2022-09-27T10:14:16.686Z,99109.13
2022-09-27T10:16:50.017Z,99099.09
2022-09-27T10:19:22.888Z,99111.13
2022-09-27T10:21:52.593Z,99099.09
2022-09-27T10:24:20.909Z,99105.09
2022-09-27T10:27:05.763Z,99107.19
2022-09-27T10:29:38.879Z,99105.19
2022-09-27T10:32:27.162Z,99105.63
2022-09-27T10:35:36.708Z,99102.13
2022-09-27T10:38:27.184Z,99110.69
2022-09-27T10:41:18.484Z,99099.22
2022-09-27T10:43:46.384Z,99111.78
2022-09-27T10:46:33.837Z,99101.59
2022-09-27T10:49:23.038Z,99102.44
2022-09-27T10:51:55.521Z,99101.25
2022-09-27T10:54:27.598Z,99106.94
2022-09-27T10:56:58.980Z,99099.28
2022-09-27T10:59:30.567Z,99111.78
2022-09-27T11:01:59.564Z,99115.47
2022-09-27T11:04:38.732Z,99107.84
2022-09-27T11:07:16.359Z,99104.25
2022-09-27T11:09:54.536Z,99102.97
2022-09-27T11:12:25.410Z,99099.47
2022-09-27T11:14:57.436Z,99100.47
2022-09-27T11:17:35.858Z,99098.66
2022-09-27T11:20:16.018Z,99091.75
2022-09-27T11:23:15.624Z,99096.53
2022-09-27T11:25:56.677Z,99097.00
2022-09-27T11:28:37.361Z,99093.34
2022-09-27T11:31:21.589Z,99094.78
2022-09-27T11:34:14.817Z,99097.25
2022-09-27T11:37:04.064Z,99099.75
2022-09-27T11:39:40.801Z,99101.13
2022-09-27T11:42:25.530Z,99101.31
2022-09-27T11:48:04.273Z,99106.56
2022-09-27T11:51:02.919Z,99107.19
2022-09-27T11:53:45.881Z,99102.97
2022-09-27T11:56:28.539Z,99099.09
2022-09-27T11:59:10.456Z,99101.44
2022-09-27T12:01:47.685Z,99094.72
2022-09-27T12:04:42.499Z,99095.00
2022-09-27T12:07:20.581Z,99085.81
2022-09-27T12:09:54.199Z,99091.03
2022-09-27T12:12:25.399Z,99083.22
2022-09-27T12:14:57.487Z,99091.94
2022-09-27T12:17:28.924Z,99084.75
2022-09-27T12:20:01.056Z,99090.00
2022-09-27T12:22:59.251Z,99093.31
2022-09-27T12:25:42.640Z,99088.34
2022-09-27T12:28:28.162Z,99078.69
2022-09-27T12:31:27.547Z,99081.00
2022-09-27T12:34:01.744Z,99080.25
2022-09-27T12:36:38.422Z,99088.59
2022-09-27T12:39:13.299Z,99087.78
2022-09-27T12:41:52.615Z,99085.09
2022-09-27T12:44:34.499Z,99090.44
2022-09-27T12:47:09.047Z,99088.44
2022-09-27T12:49:48.106Z,99084.75
2022-09-27T12:52:23.138Z,99083.09
2022-09-27T12:55:09.131Z,99081.25
2022-09-27T12:57:48.154Z,99089.69
2022-09-27T13:00:21.894Z,99091.09
2022-09-27T13:03:16.433Z,99094.19
2022-09-27T13:06:24.215Z,99094.66
2022-09-27T13:09:33.767Z,99086.03
2022-09-27T13:12:09.788Z,99089.19
2022-09-27T13:14:45.368Z,99076.88
2022-09-27T13:17:51.142Z,99092.22
2022-09-27T13:20:48.158Z,99081.94
2022-09-27T13:24:02.166Z,99083.59
2022-09-27T13:26:51.538Z,99078.25
2022-09-27T13:29:34.129Z,99078.25
2022-09-27T13:32:18.716Z,99089.47
2022-09-27T13:35:21.630Z,99088.28
2022-09-27T13:37:59.310Z,99096.28
2022-09-27T13:40:35.930Z,99094.78
2022-09-27T13:44:05.220Z,99093.78
2022-09-27T13:46:53.294Z,99088.09
2022-09-27T13:49:30.125Z,99096.09
2022-09-27T13:52:20.562Z,99087.91
2022-09-27T13:54:54.030Z,99085.97
2022-09-27T13:57:45.148Z,99089.09
2022-09-27T14:00:21.285Z,99091.38
2022-09-27T14:03:02.529Z,99091.47
2022-09-27T14:05:39.088Z,99087.63
2022-09-27T14:08:08.362Z,99092.13
2022-09-27T14:10:37.226Z,99095.97
2022-09-27T14:13:07.719Z,99099.03
2022-09-27T14:15:46.497Z,99094.88
2022-09-27T14:18:14.773Z,99096.53
2022-09-27T14:20:46.410Z,99100.59
2022-09-27T14:23:37.345Z,99094.78
2022-09-27T14:26:05.734Z,99091.66
2022-09-27T14:28:42.187Z,99088.75
2022-09-27T14:31:39.190Z,99099.78
2022-09-27T14:34:08.684Z,99096.66
2022-09-27T14:36:57.004Z,99097.03
2022-09-27T14:39:31.163Z,99099.88
2022-09-27T14:42:01.091Z,99104.13
2022-09-27T14:44:29.193Z,99104.00
2022-09-27T14:47:18.815Z,99110.59
2022-09-27T14:49:50.841Z,99111.16
2022-09-27T14:52:21.660Z,99105.38
2022-09-27T14:54:58.476Z,99116.84
2022-09-27T14:57:28.187Z,99122.34
2022-09-27T14:59:57.580Z,99121.34
2022-09-27T15:02:27.085Z,99120.88
2022-09-27T15:04:55.669Z,99116.56
2022-09-27T15:07:24.854Z,99121.88
2022-09-27T15:09:52.703Z,99122.06
2022-09-27T15:12:26.376Z,99128.97
2022-09-27T15:14:58.094Z,99130.59
2022-09-27T15:17:26.705Z,99126.78
2022-09-27T15:19:59.096Z,99123.09
2022-09-27T15:22:44.825Z,99127.41
2022-09-27T15:25:34.398Z,99128.41
2022-09-27T15:28:05.416Z,99130.06
2022-09-27T15:30:38.421Z,99132.53
2022-09-27T15:33:08.500Z,99136.03
2022-09-27T15:35:37.364Z,99132.53
2022-09-27T15:38:26.425Z,99134.38
2022-09-27T15:41:11.007Z,99133.38
2022-09-27T15:43:42.235Z,99130.69
2022-09-27T15:46:28.702Z,99125.38
2022-09-27T15:49:20.912Z,99136.84
2022-09-27T15:51:49.663Z,99133.56
2022-09-27T15:54:20.820Z,99138.88
2022-09-27T15:56:54.531Z,99138.69
2022-09-27T15:59:25.472Z,99134.19
2022-09-27T16:01:57.076Z,99130.06
2022-09-27T16:04:26.146Z,99133.56
2022-09-27T16:06:54.607Z,99133.56
2022-09-27T16:09:23.636Z,99127.41
2022-09-27T16:11:52.074Z,99127.41
2022-09-27T16:14:19.844Z,99135.41
2022-09-27T16:16:50.105Z,99126.94
2022-09-27T16:19:17.948Z,99125.09
2022-09-27T16:21:48.423Z,99132.44
2022-09-27T16:24:17.284Z,99133.47
2022-09-27T16:26:46.219Z,99127.50
2022-09-27T16:29:15.833Z,99142.19
2022-09-27T16:31:44.068Z,99143.19
2022-09-27T16:34:12.619Z,99138.88
2022-09-27T16:36:40.640Z,99138.22
2022-09-27T16:39:12.645Z,99135.94
2022-09-27T16:41:42.259Z,99143.91
2022-09-27T16:44:13.195Z,99141.59
2022-09-27T16:46:41.963Z,99138.66
2022-09-27T16:49:30.304Z,99141.50
2022-09-27T16:51:59.772Z,99146.19
2022-09-27T16:54:29.068Z,99147.34
2022-09-27T16:56:57.519Z,99152.25
2022-09-27T16:59:26.859Z,99147.44
2022-09-27T17:01:57.535Z,99147.78
2022-09-27T17:04:25.656Z,99155.97
2022-09-27T17:06:53.292Z,99153.66
2022-09-27T17:09:21.357Z,99147.88
2022-09-27T17:11:49.322Z,99148.25
2022-09-27T17:14:18.019Z,99153.25
2022-09-27T17:16:48.219Z,99150.75
2022-09-27T17:19:16.764Z,99144.16
2022-09-27T17:21:44.566Z,99149.00
2022-09-27T17:24:12.875Z,99145.03
2022-09-27T17:26:40.627Z,99146.22
2022-09-27T17:29:09.236Z,99143.06
2022-09-27T17:31:39.827Z,99137.31
2022-09-27T17:34:12.086Z,99137.81
2022-09-27T17:36:42.136Z,99140.00
2022-09-27T17:39:13.164Z,99141.38
2022-09-27T17:41:41.054Z,99131.91
2022-09-27T17:44:11.974Z,99141.25
2022-09-27T17:46:39.920Z,99131.97
2022-09-27T17:49:27.894Z,99130.66
2022-09-27T17:51:55.594Z,99131.16
2022-09-27T17:54:26.101Z,99134.38
2022-09-27T17:56:53.899Z,99129.38
2022-09-27T17:59:21.466Z,99127.25
2022-09-27T18:01:49.495Z,99124.31
2022-09-27T18:04:19.600Z,99121.16
2022-09-27T18:06:48.567Z,99121.50
2022-09-27T18:09:17.820Z,99123.66
2022-09-27T18:11:45.959Z,99121.34
2022-09-27T18:14:13.955Z,99120.88
2022-09-27T18:16:42.808Z,99115.25
2022-09-27T18:19:13.762Z,99113.75
2022-09-27T18:21:42.715Z,99112.44
2022-09-27T18:24:11.110Z,99108.47
2022-09-27T18:26:40.195Z,99122.94
2022-09-27T18:29:11.068Z,99114.47
2022-09-27T18:31:39.784Z,99114.81
2022-09-27T18:34:07.475Z,99111.69
2022-09-27T18:36:37.354Z,99117.31
2022-09-27T18:39:09.195Z,99116.84
2022-09-27T18:41:36.972Z,99119.84
2022-09-27T18:44:06.529Z,99116.53
2022-09-27T18:46:37.149Z,99112.38
2022-09-27T18:49:06.448Z,99118.88
2022-09-27T18:51:37.158Z,99111.25
2022-09-27T18:54:09.227Z,99110.75
2022-09-27T18:56:39.224Z,99105.94
2022-09-27T18:59:08.791Z,99107.28
2022-09-27T19:01:39.486Z,99112.13
2022-09-27T19:04:08.197Z,99107.13
2022-09-27T19:06:37.084Z,99110.97
2022-09-27T19:09:08.112Z,99105.16
2022-09-27T19:11:35.937Z,99108.16
2022-09-27T19:14:04.030Z,99109.31
2022-09-27T19:16:32.046Z,99112.31
2022-09-27T19:18:59.679Z,99108.16
2022-09-27T19:21:29.037Z,99102.19
2022-09-27T19:23:57.292Z,99109.50
2022-09-27T19:26:27.858Z,99107.84
2022-09-27T19:28:55.863Z,99107.00
2022-09-27T19:31:25.608Z,99106.34
2022-09-27T19:33:59.736Z,99095.75
2022-09-27T19:36:28.748Z,99105.53
2022-09-27T19:38:58.531Z,99097.75
2022-09-27T19:41:27.910Z,99106.69
2022-09-27T19:43:56.491Z,99105.88
2022-09-27T19:46:25.563Z,99105.03
2022-09-27T19:48:53.719Z,99096.41
2022-09-27T19:51:23.360Z,99100.06
2022-09-27T19:53:51.587Z,99095.75
2022-09-27T19:56:20.159Z,99097.59
2022-09-27T19:58:49.132Z,99097.59
2022-09-27T20:01:19.124Z,99087.97
2022-09-27T20:03:48.036Z,99081.81
2022-09-27T20:06:17.252Z,99076.50
2022-09-27T20:08:45.408Z,99087.13
2022-09-27T20:11:15.111Z,99078.50
2022-09-27T20:13:43.463Z,99086.28
2022-09-27T20:16:15.140Z,99077.50
2022-09-27T20:18:44.642Z,99072.06
2022-09-27T20:21:12.380Z,99077.38
2022-09-27T20:23:40.325Z,99077.19
2022-09-27T20:26:09.454Z,99082.50
2022-09-27T20:28:41.634Z,99071.88
2022-09-27T20:31:11.023Z,99072.72
2022-09-27T20:33:43.767Z,99070.06
2022-09-27T20:36:13.371Z,99066.06
2022-09-27T20:38:41.428Z,99063.56
2022-09-27T20:41:10.393Z,99069.56
2022-09-27T20:43:38.493Z,99065.06
2022-09-27T20:46:08.123Z,99071.03
2022-09-27T20:48:36.454Z,99067.56
2022-09-27T20:51:06.468Z,99066.72
2022-09-27T20:53:35.336Z,99069.03
2022-09-27T20:56:03.556Z,99056.13
2022-09-27T20:58:32.528Z,99060.41
2022-09-27T21:01:06.480Z,99058.59
2022-09-27T21:03:34.344Z,99052.47
2022-09-27T21:06:02.233Z,99055.94
2022-09-27T21:08:33.131Z,99052.28
2022-09-27T21:11:06.315Z,99055.75
2022-09-27T21:13:33.976Z,99053.09
2022-09-27T21:16:02.793Z,99046.81
2022-09-27T21:18:30.704Z,99052.13
2022-09-27T21:20:59.581Z,99051.97
2022-09-27T21:23:29.507Z,99049.31
2022-09-27T21:26:06.859Z,99053.59
2022-09-27T21:28:35.787Z,99046.47
2022-09-27T21:31:05.506Z,99048.31
2022-09-27T21:33:34.128Z,99046.47
2022-09-27T21:36:02.707Z,99045.66
2022-09-27T21:38:30.891Z,99043.16
2022-09-27T21:40:59.547Z,99037.69
2022-09-27T21:43:30.964Z,99038.69
2022-09-27T21:46:06.749Z,99036.03
2022-09-27T21:48:35.625Z,99037.88
2022-09-27T21:51:05.908Z,99037.03
2022-09-27T21:53:34.724Z,99038.88
2022-09-27T21:56:03.333Z,99028.41
2022-09-27T21:58:35.127Z,99026.75
2022-09-27T22:01:08.063Z,99025.09
2022-09-27T22:03:36.755Z,99027.94
2022-09-27T22:06:05.525Z,99026.28
2022-09-27T22:08:33.230Z,99018.66
2022-09-27T22:11:00.957Z,99020.66
2022-09-27T22:13:28.853Z,99021.66
2022-09-27T22:16:02.861Z,99017.31
2022-09-27T22:18:30.944Z,99018.31
2022-09-27T22:21:03.395Z,99015.84
2022-09-27T22:23:31.020Z,99012.38
2022-09-27T22:25:58.673Z,99010.53
2022-09-27T22:28:27.244Z,99005.41
2022-09-27T22:30:54.895Z,99009.88
2022-09-27T22:33:23.980Z,99008.06
2022-09-27T22:35:51.590Z,99006.22
2022-09-27T22:38:19.175Z,99007.06
2022-09-27T22:40:54.906Z,98998.44
2022-09-27T22:43:22.728Z,98996.63
2022-09-27T22:45:50.340Z,98990.31
2022-09-27T22:48:18.941Z,98984.34
2022-09-27T22:50:47.864Z,98982.50
2022-09-27T22:53:15.730Z,98987.81
2022-09-27T22:55:43.345Z,98983.38
2022-09-27T22:58:10.976Z,98970.94
2022-09-27T23:00:38.818Z,98961.28
2022-09-27T23:03:06.458Z,98960.47
2022-09-27T23:05:34.020Z,98958.63
2022-09-27T23:08:03.074Z,98953.31
2022-09-27T23:10:30.822Z,98943.72
2022-09-27T23:12:58.943Z,98945.56
2022-09-27T23:15:26.564Z,98954.50
2022-09-27T23:17:54.952Z,98945.09
2022-09-27T23:20:23.447Z,98944.25
2022-09-27T23:22:51.909Z,98944.06
2022-09-27T23:25:21.978Z,98945.09
2022-09-27T23:27:50.791Z,98944.25
2022-09-27T23:30:20.194Z,98940.75
2022-09-27T23:32:53.290Z,98934.63
2022-09-27T23:35:21.116Z,98931.13
2022-09-27T23:37:48.840Z,98941.75
2022-09-27T23:40:16.648Z,98937.28
2022-09-27T23:42:45.566Z,98932.97
2022-09-27T23:45:14.275Z,98926.00
2022-09-27T23:47:42.010Z,98928.66
2022-09-27T23:50:10.586Z,98929.50
2022-09-27T23:52:38.168Z,98924.19
2022-09-27T23:55:06.834Z,98925.00
2022-09-27T23:57:34.390Z,98918.25
